Time;durP1;ratioP1;P1;durP2;ratioP2;P2;SDS_P1;SDS_P2;PMS_P1;PMS_P2;Temp;Humidity;BMP_temperature;BMP_pressure;BME280_temperature;BME280_humidity;BME280_pressure;Samples;Min_cycle;Max_cycle;Signal;HPM_P1;HPM_P2
2021/12/17 00:00:58;;;;;;;;;78.00;59.50;;;;;7.41;94.93;103695.47;5038536;28;46043;-84
2021/12/17 00:03:34;;;;;;;;;79.75;61.25;;;;;7.40;94.71;103696.31;5038836;28;45436;-83
2021/12/17 00:08:35;;;;;;;;;78.00;58.25;;;;;7.38;95.06;103693.63;5038694;28;45536;-83
2021/12/17 00:11:02;;;;;;;;;79.50;58.25;;;;;7.32;94.85;103685.53;5038706;28;45274;-83
2021/12/17 00:13:27;;;;;;;;;83.50;65.25;;;;;7.24;95.23;103671.22;5038690;28;45431;-82
2021/12/17 00:15:53;;;;;;;;;78.75;60.50;;;;;7.28;95.80;103676.63;5038229;28;45305;-83
2021/12/17 00:18:29;;;;;;;;;76.50;60.25;;;;;7.32;94.55;103691.66;5038714;28;45492;-84
2021/12/17 00:40:27;;;;;;;;;86.25;69.50;;;;;6.86;95.04;103663.66;5038479;28;45417;-82
2021/12/17 00:48:36;;;;;;;;;89.00;69.75;;;;;6.71;94.34;103655.16;5037967;28;45352;-82
2021/12/17 00:53:36;;;;;;;;;84.75;66.25;;;;;6.61;95.60;103651.31;5037745;28;45253;-82
2021/12/17 00:56:02;;;;;;;;;77.50;58.75;;;;;6.69;95.40;103662.97;5037646;28;45224;-82
2021/12/17 00:58:27;;;;;;;;;85.00;69.50;;;;;6.55;95.87;103644.09;5035602;28;45399;-81
2021/12/17 01:00:53;;;;;;;;;76.50;60.50;;;;;6.58;95.33;103648.56;5037924;28;45409;-83
2021/12/17 01:03:18;;;;;;;;;77.00;60.25;;;;;6.53;94.90;103653.59;5038024;28;46352;-83
2021/12/17 01:05:44;;;;;;;;;79.50;59.75;;;;;6.55;95.22;103659.81;5037848;28;45341;-83
2021/12/17 01:08:10;;;;;;;;;80.00;60.75;;;;;6.57;95.88;103665.09;5037761;28;45331;-83
2021/12/17 01:10:44;;;;;;;;;82.50;62.00;;;;;6.51;95.36;103652.66;5037943;28;45313;-82
2021/12/17 01:13:10;;;;;;;;;80.50;63.25;;;;;6.57;95.18;103665.09;5037487;28;45684;-82
2021/12/17 01:15:37;;;;;;;;;83.25;62.75;;;;;6.55;95.01;103662.41;5037357;28;45350;-83
2021/12/17 01:18:09;;;;;;;;;47.00;35.75;;;;;6.52;96.19;103664.00;5037509;28;45445;-82
2021/12/17 01:23:45;;;;;;;;;85.50;66.50;;;;;6.36;97.30;103642.44;5037118;28;45530;-82
2021/12/17 01:36:49;;;;;;;;;85.50;65.50;;;;;6.25;96.21;103621.03;5037223;28;45373;-83
2021/12/17 01:42:07;;;;;;;;;81.50;62.00;;;;;6.49;97.54;103664.78;5037626;28;45483;-82
2021/12/17 01:44:39;;;;;;;;;79.25;61.00;;;;;6.37;96.68;103656.41;5037188;28;45358;-83
2021/12/17 01:47:08;;;;;;;;;83.00;64.25;;;;;6.44;96.21;103679.41;5037296;28;45424;-82
2021/12/17 02:00:33;;;;;;;;;79.00;61.00;;;;;6.38;97.10;103687.00;5037089;28;45233;-83
2021/12/17 02:03:00;;;;;;;;;74.00;56.75;;;;;6.39;97.07;103688.75;5037392;28;45455;-83
2021/12/17 02:05:26;;;;;;;;;73.00;54.67;;;;;6.37;95.40;103688.69;5037203;28;45790;-83
2021/12/17 02:07:54;;;;;;;;;75.50;57.75;;;;;6.34;95.33;103679.84;5036486;28;45282;-83
2021/12/17 02:11:23;;;;;;;;;78.00;57.75;;;;;6.22;95.03;103668.03;5039767;28;45407;-81
2021/12/17 02:32:05;;;;;;;;;59.67;48.00;;;;;6.15;96.02;103665.09;5040280;28;45367;-83
2021/12/17 02:37:24;;;;;;;;;58.33;49.00;;;;;6.29;95.32;103671.81;5039861;28;45562;-81
2021/12/17 02:47:59;;;;;;;;;57.00;47.00;;;;;6.09;94.14;103663.09;5039959;28;45894;-82
2021/12/17 02:50:25;;;;;;;;;57.00;47.00;;;;;6.08;95.04;103672.69;5039946;28;45439;-81
2021/12/17 02:52:53;;;;;;;;;58.67;45.67;;;;;6.11;95.70;103666.66;5039729;28;45409;-82
2021/12/17 02:55:20;;;;;;;;;56.00;42.67;;;;;6.06;95.34;103671.69;5039791;28;45459;-82
2021/12/17 02:57:46;;;;;;;;;55.67;44.67;;;;;6.07;95.72;103657.81;5039501;28;45306;-82
2021/12/17 03:00:12;;;;;;;;;54.67;40.67;;;;;6.10;94.66;103651.81;5039465;28;45199;-82
2021/12/17 03:02:39;;;;;;;;;52.67;42.33;;;;;6.09;94.49;103652.63;5040119;28;45444;-82
2021/12/17 03:05:06;;;;;;;;;51.33;41.67;;;;;6.12;95.14;103660.59;5040144;28;45389;-82
2021/12/17 03:07:35;;;;;;;;;49.00;39.33;;;;;6.06;93.81;103648.16;5039312;28;45460;-81
2021/12/17 03:10:04;;;;;;;;;48.67;40.67;;;;;6.05;95.11;103648.97;5039551;28;45386;-82
2021/12/17 03:13:00;;;;;;;;;54.00;41.67;;;;;6.09;94.53;103650.03;5039581;28;45317;-82
2021/12/17 03:26:04;;;;;;;;;55.00;42.33;;;;;5.90;94.10;103623.03;5039625;28;45426;-81
2021/12/17 03:28:32;;;;;;;;;47.00;39.67;;;;;6.00;94.78;103632.22;5038777;28;47077;-81
2021/12/17 03:30:59;;;;;;;;;52.33;40.67;;;;;6.07;95.02;103644.72;5038806;28;45334;-83
2021/12/17 03:33:25;;;;;;;;;44.33;38.33;;;;;6.09;94.68;103632.59;5039185;28;45382;-83
2021/12/17 03:35:51;;;;;;;;;53.33;41.00;;;;;6.12;94.99;103636.19;5039597;28;45277;-83
2021/12/17 03:38:17;;;;;;;;;47.33;39.00;;;;;6.05;93.00;103629.78;5039079;28;46690;-83
2021/12/17 03:40:44;;;;;;;;;52.00;39.00;;;;;6.06;92.73;103634.19;5038836;28;45358;-82
2021/12/17 03:43:14;;;;;;;;;44.67;38.67;;;;;5.85;94.08;103614.13;5039078;28;45166;-82
2021/12/17 03:45:41;;;;;;;;;46.00;38.33;;;;;5.99;94.46;103630.41;5039170;28;45433;-84
2021/12/17 03:48:08;;;;;;;;;46.00;38.33;;;;;5.97;93.85;103633.75;5038791;28;46265;-82
2021/12/17 03:50:36;;;;;;;;;44.00;35.67;;;;;5.98;94.44;103630.34;5038881;28;45443;-83
2021/12/17 03:53:04;;;;;;;;;42.33;38.33;;;;;5.90;94.91;103611.69;5039045;28;45556;-83
2021/12/17 03:55:29;;;;;;;;;52.33;41.67;;;;;5.90;93.59;103617.81;5038853;28;45498;-83
2021/12/17 03:57:58;;;;;;;;;55.00;39.67;;;;;5.90;94.21;103619.53;5038512;28;46644;-82
2021/12/17 04:00:24;;;;;;;;;47.00;40.00;;;;;5.87;94.27;103608.94;5038641;28;45343;-82
2021/12/17 04:02:49;;;;;;;;;42.67;37.67;;;;;5.99;94.47;103632.16;5038810;28;45744;-84
2021/12/17 04:05:14;;;;;;;;;57.33;42.67;;;;;6.02;93.81;103632.28;5039346;28;45377;-82
2021/12/17 04:07:40;;;;;;;;;52.33;42.00;;;;;6.00;93.75;103631.28;5038698;28;45209;-84
2021/12/17 04:10:05;;;;;;;;;46.33;38.33;;;;;5.92;92.83;103631.84;5049796;28;45459;-84
2021/12/17 04:15:13;;;;;;;;;44.00;38.67;;;;;5.74;93.67;103617.97;5059323;28;45451;-83
2021/12/17 04:17:44;;;;;;;;;35.33;34.67;;;;;5.81;93.29;103616.50;5058543;28;47041;-83
2021/12/17 04:20:10;;;;;;;;;49.00;38.67;;;;;5.80;93.51;103620.84;5058800;28;45455;-83
2021/12/17 04:22:39;;;;;;;;;38.33;33.00;;;;;5.87;93.72;103635.09;5058700;28;45443;-83
2021/12/17 04:25:05;;;;;;;;;47.33;38.00;;;;;5.83;93.27;103627.94;5058734;28;45188;-83
2021/12/17 04:27:30;;;;;;;;;55.00;42.67;;;;;5.78;93.58;103619.91;5058226;28;46201;-83
2021/12/17 04:29:57;;;;;;;;;57.00;42.00;;;;;5.81;94.28;103625.25;5058566;28;46045;-83
2021/12/17 04:32:22;;;;;;;;;43.67;39.33;;;;;5.85;94.24;103627.19;5058532;28;45312;-82
2021/12/17 04:34:48;;;;;;;;;51.00;38.33;;;;;5.89;92.75;103628.19;5058521;28;45335;-82
2021/12/17 04:37:14;;;;;;;;;53.33;43.00;;;;;5.87;92.95;103624.63;5058229;28;46293;-82
2021/12/17 04:39:39;;;;;;;;;50.67;39.67;;;;;5.86;92.45;103630.69;5058321;28;45319;-82
2021/12/17 04:42:13;;;;;;;;;53.67;40.33;;;;;5.68;93.11;103596.81;5058471;28;45488;-82
2021/12/17 04:44:47;;;;;;;;;54.00;43.00;;;;;5.78;93.11;103603.28;5058557;28;45456;-81
2021/12/17 04:57:55;;;;;;;;;74.33;56.00;;;;;5.83;94.27;103613.13;5056966;28;45364;-83
2021/12/17 05:00:27;;;;;;;;;73.00;55.33;;;;;5.83;93.91;103607.91;5057517;28;45460;-83
2021/12/17 05:02:56;;;;;;;;;73.67;56.00;;;;;5.95;93.84;103622.34;5058044;28;45432;-80
2021/12/17 05:05:28;;;;;;;;;74.00;57.33;;;;;5.93;93.25;103617.03;5058395;28;45467;-82
2021/12/17 05:08:06;;;;;;;;;67.67;54.00;;;;;5.82;92.47;103613.06;5057485;28;46681;-83
2021/12/17 05:18:44;;;;;;;;;74.00;55.67;;;;;5.78;91.63;103626.81;5057320;28;45442;-83
2021/12/17 05:21:09;;;;;;;;;30.67;26.67;;;;;5.68;92.82;103618.59;5057523;28;45285;-83
2021/12/17 05:23:40;;;;;;;;;66.67;51.67;;;;;5.67;92.68;103622.03;5057776;28;45531;-83
2021/12/17 05:26:09;;;;;;;;;74.00;56.33;;;;;5.61;92.92;103628.72;5057848;28;45302;-82
2021/12/17 05:28:35;;;;;;;;;74.67;56.33;;;;;5.57;93.28;103619.84;5057204;28;45406;-82
2021/12/17 05:31:00;;;;;;;;;73.33;55.33;;;;;5.64;93.82;103624.50;5057211;28;45603;-81
2021/12/17 05:33:26;;;;;;;;;73.00;58.00;;;;;5.59;93.89;103615.56;5056997;28;45352;-79
2021/12/17 05:35:53;;;;;;;;;72.67;57.00;;;;;5.63;92.49;103625.31;5057758;28;45461;-80
2021/12/17 05:38:20;;;;;;;;;72.00;56.00;;;;;5.62;92.76;103630.47;5056942;28;46234;-80
2021/12/17 05:40:46;;;;;;;;;78.00;56.00;;;;;5.55;91.59;103629.34;5056784;28;45525;-80
2021/12/17 05:43:14;;;;;;;;;75.00;56.67;;;;;5.48;93.36;103627.28;5057094;28;45324;-82
2021/12/17 05:48:20;;;;;;;;;73.00;55.33;;;;;5.48;92.98;103641.22;5056453;28;45692;-81
2021/12/17 05:50:48;;;;;;;;;64.67;53.00;;;;;5.41;92.31;103636.53;5056883;28;45531;-81
2021/12/17 05:53:14;;;;;;;;;70.00;53.67;;;;;5.36;93.06;103632.84;5056957;28;45404;-81
2021/12/17 05:55:39;;;;;;;;;75.33;57.33;;;;;5.29;93.14;103625.53;5056224;28;45547;-81
2021/12/17 05:58:07;;;;;;;;;67.67;53.33;;;;;5.26;92.62;103639.34;5056521;28;45529;-81
2021/12/17 06:00:33;;;;;;;;;74.33;53.67;;;;;5.28;92.96;103642.91;5056228;28;45514;-81
2021/12/17 06:03:00;;;;;;;;;67.00;53.67;;;;;5.32;93.15;103650.06;5057023;28;45350;-81
2021/12/17 06:05:27;;;;;;;;;73.33;53.33;;;;;5.26;92.26;103635.81;5057137;28;45548;-81
2021/12/17 06:07:53;;;;;;;;;77.33;55.67;;;;;5.03;93.56;103604.34;5056586;28;45439;-81
2021/12/17 06:10:18;;;;;;;;;68.67;54.67;;;;;5.26;93.46;103652.41;5056561;28;45387;-81
2021/12/17 06:12:44;;;;;;;;;74.67;56.67;;;;;5.30;93.85;103654.34;5056077;28;45445;-80
2021/12/17 06:15:12;;;;;;;;;77.50;58.25;;;;;5.35;93.31;103659.78;5057174;28;45511;-80
2021/12/17 06:17:38;;;;;;;;;69.67;52.00;;;;;5.34;92.65;103647.53;5056218;28;46450;-80
2021/12/17 06:20:06;;;;;;;;;74.33;56.33;;;;;5.35;92.54;103654.56;5056486;28;45496;-80
2021/12/17 06:22:32;;;;;;;;;65.33;51.67;;;;;5.29;93.81;103641.22;5056760;28;45479;-80
2021/12/17 06:24:57;;;;;;;;;71.67;57.00;;;;;5.34;93.11;103653.63;5056864;27;45556;-80
2021/12/17 06:27:25;;;;;;;;;70.33;54.33;;;;;5.32;92.42;103649.19;5056471;28;46603;-79
2021/12/17 06:29:52;;;;;;;;;70.00;55.00;;;;;5.29;92.62;103636.00;5056647;28;45359;-79
2021/12/17 06:32:18;;;;;;;;;67.00;52.67;;;;;5.24;92.33;103630.53;5056300;28;45844;-79
2021/12/17 06:34:44;;;;;;;;;84.00;66.00;;;;;5.26;91.74;103651.50;5057024;28;45281;-79
2021/12/17 06:37:10;;;;;;;;;70.67;55.33;;;;;5.14;92.27;103636.16;5056044;28;46206;-80
2021/12/17 06:39:35;;;;;;;;;70.00;53.33;;;;;5.14;92.48;103637.06;5056146;28;45463;-80
2021/12/17 06:42:02;;;;;;;;;65.00;52.33;;;;;5.14;91.95;103639.69;5056802;28;45404;-80
2021/12/17 06:44:28;;;;;;;;;70.00;56.00;;;;;5.15;92.79;103646.69;5055219;28;45321;-77
2021/12/17 06:49:28;;;;;;;;;67.33;53.67;;;;;5.11;92.47;103655.22;5056245;28;45324;-78
2021/12/17 07:32:18;;;;;;;;;55.67;41.67;;;;;5.85;99.26;103682.09;5036901;28;45523;-80
2021/12/17 07:34:41;;;;;;;;;62.33;44.67;;;;;5.93;99.53;103682.44;5036836;28;45437;-80
2021/12/17 07:39:33;;;;;;;;;56.00;42.00;;;;;5.93;98.91;103680.69;5035421;28;46153;-78
2021/12/17 07:41:58;;;;;;;;;46.00;37.33;;;;;5.95;98.93;103679.88;5036346;28;45508;-78
2021/12/17 07:44:24;;;;;;;;;54.67;44.67;;;;;5.61;99.04;103626.09;5034953;28;45458;-78
2021/12/17 07:46:49;;;;;;;;;40.67;35.00;;;;;6.00;98.60;103692.38;5036800;28;45462;-79
2021/12/17 07:49:15;;;;;;;;;41.00;32.33;;;;;6.03;98.81;103697.72;5036172;28;46704;-79
2021/12/17 07:51:40;;;;;;;;;48.33;35.33;;;;;5.85;98.79;103661.19;5036657;28;45367;-79
2021/12/17 07:54:05;;;;;;;;;46.33;35.00;;;;;6.03;98.29;103668.06;5037055;28;45277;-82
2021/12/17 07:56:37;;;;;;;;;41.33;33.33;;;;;6.13;98.88;103687.66;5036885;28;45413;-81
2021/12/17 07:59:11;;;;;;;;;34.00;30.33;;;;;6.06;98.82;103678.66;5058623;28;45715;-81
2021/12/17 08:01:37;;;;;;;;;40.67;34.33;;;;;6.17;98.91;103698.34;5058185;28;45711;-81
2021/12/17 08:04:04;;;;;;;;;39.33;31.67;;;;;6.15;99.18;103699.97;5058572;28;45309;-81
2021/12/17 08:06:30;;;;;;;;;30.00;27.67;;;;;6.19;98.80;103701.91;5058418;28;45324;-80
2021/12/17 08:08:55;;;;;;;;;35.33;30.33;;;;;5.95;99.28;103656.34;5058244;28;46528;-80
2021/12/17 08:11:22;;;;;;;;;31.33;28.67;;;;;6.10;99.06;103684.09;5058071;28;45368;-80
2021/12/17 08:13:48;;;;;;;;;37.67;23.33;;;;;6.17;98.19;103690.50;5058462;28;45761;-81
2021/12/17 08:26:41;;;;;;;;;38.00;26.67;;;;;6.47;98.37;103700.47;5058731;28;45439;-81
2021/12/17 08:29:25;;;;;;;;;33.67;28.00;;;;;6.53;98.71;103708.56;5038261;28;47184;-82
2021/12/17 08:31:52;;;;;;;;;34.00;31.00;;;;;6.45;99.08;103697.78;5046704;28;45279;-82
2021/12/17 08:34:17;;;;;;;;;32.33;27.67;;;;;6.44;99.08;103698.59;5058057;28;45315;-77
2021/12/17 08:36:43;;;;;;;;;30.67;24.33;;;;;6.59;99.02;103708.84;5058545;28;45435;-77
2021/12/17 08:39:08;;;;;;;;;30.67;27.00;;;;;6.63;99.17;103715.09;5055796;28;46363;-77
2021/12/17 08:41:33;;;;;;;;;37.67;31.00;;;;;6.59;99.33;103702.69;5057854;28;45455;-77
2021/12/17 08:43:59;;;;;;;;;37.00;32.00;;;;;6.50;98.75;103686.63;5058337;28;45397;-77
2021/12/17 08:46:24;;;;;;;;;39.67;33.33;;;;;6.61;100.00;103707.16;5058130;28;45468;-76
2021/12/17 08:48:50;;;;;;;;;40.00;33.00;;;;;6.56;100.00;103698.22;5057987;28;45570;-77
2021/12/17 08:51:16;;;;;;;;;38.00;35.33;;;;;6.51;99.67;103689.28;5058096;28;45164;-77
2021/12/17 08:53:41;;;;;;;;;48.33;33.00;;;;;6.70;99.88;103718.88;5058042;28;45513;-77
2021/12/17 08:56:07;;;;;;;;;39.67;34.67;;;;;6.60;100.00;103704.50;5057480;28;45447;-77
2021/12/17 08:58:34;;;;;;;;;51.67;37.33;;;;;6.61;99.87;103704.56;5057808;28;46795;-77
2021/12/17 09:01:05;;;;;;;;;49.67;33.00;;;;;6.74;100.00;103723.41;5057612;28;45372;-76
2021/12/17 09:03:32;;;;;;;;;36.00;32.67;;;;;6.66;99.62;103706.47;5057944;28;45203;-76
2021/12/17 09:06:00;;;;;;;;;37.67;35.33;;;;;6.83;100.00;103728.13;5057831;28;45380;-77
2021/12/17 09:08:25;;;;;;;;;43.67;35.00;;;;;6.79;100.00;103724.47;5057503;28;47198;-77
2021/12/17 09:10:55;;;;;;;;;43.33;37.33;;;;;6.86;100.00;103723.88;5057601;28;45431;-77
2021/12/17 09:13:25;;;;;;;;;44.33;37.33;;;;;6.80;100.00;103719.28;5058808;28;45230;-77
2021/12/17 09:15:50;;;;;;;;;35.33;32.00;;;;;6.83;100.00;103722.88;5057829;28;45345;-77
2021/12/17 09:18:16;;;;;;;;;48.67;38.00;;;;;6.92;100.00;103729.38;5056965;28;46444;-76
2021/12/17 09:20:43;;;;;;;;;46.33;36.33;;;;;6.67;100.00;103674.22;5056425;28;45332;-75
2021/12/17 09:23:08;;;;;;;;;54.00;41.00;;;;;7.00;100.00;103721.84;5057696;28;45255;-77
2021/12/17 09:25:34;;;;;;;;;42.00;34.00;;;;;7.01;99.85;103721.00;5057477;28;45320;-77
2021/12/17 09:27:59;;;;;;;;;43.00;36.33;;;;;7.13;100.00;103742.47;5056561;28;46014;-77
2021/12/17 09:30:25;;;;;;;;;37.00;30.00;;;;;7.15;99.75;103740.78;5055992;28;45419;-77
2021/12/17 09:32:50;;;;;;;;;50.00;35.00;;;;;7.05;99.86;103727.25;5057569;28;45543;-77
2021/12/17 09:35:15;;;;;;;;;40.33;31.67;;;;;7.11;100.00;103733.63;5057684;28;45360;-77
2021/12/17 09:37:41;;;;;;;;;59.33;43.33;;;;;7.17;100.00;103743.47;5056738;28;45412;-77
2021/12/17 09:40:09;;;;;;;;;53.67;36.67;;;;;7.22;100.00;103755.03;5057175;28;45404;-77
2021/12/17 09:42:36;;;;;;;;;42.33;35.67;;;;;7.22;100.00;103752.41;5057386;28;45441;-78
2021/12/17 09:45:03;;;;;;;;;46.67;35.00;;;;;7.30;100.00;103752.72;5057649;28;45406;-73
2021/12/17 09:47:29;;;;;;;;;52.33;37.00;;;;;7.24;100.00;103750.72;5056875;28;45343;-77
2021/12/17 09:49:57;;;;;;;;;41.33;34.67;;;;;7.32;100.00;103761.53;5057058;28;45304;-78
2021/12/17 09:52:24;;;;;;;;;52.33;41.00;;;;;7.35;100.00;103761.66;5057301;28;45334;-78
2021/12/17 09:54:49;;;;;;;;;52.00;37.50;;;;;7.28;100.00;103747.41;5057375;28;45313;-77
2021/12/17 09:57:17;;;;;;;;;36.00;32.67;;;;;7.23;100.00;103735.88;5057129;28;45373;-78
2021/12/17 09:59:43;;;;;;;;;49.67;37.33;;;;;7.42;100.00;103768.03;5056857;28;45423;-78
2021/12/17 10:02:08;;;;;;;;;40.00;28.33;;;;;7.36;100.00;103758.19;5057136;28;45229;-77
2021/12/17 10:04:34;;;;;;;;;39.67;33.67;;;;;7.46;100.00;103778.72;5057356;28;45453;-77
2021/12/17 10:07:30;;;;;;;;;43.33;32.00;;;;;7.39;100.00;103762.66;5056544;28;46326;-77
2021/12/17 10:10:00;;;;;;;;;43.67;35.00;;;;;7.46;100.00;103776.09;5045795;28;45467;-78
2021/12/17 10:12:27;;;;;;;;;46.67;33.33;;;;;7.38;100.00;103755.63;5056277;28;45529;-77
2021/12/17 10:15:10;;;;;;;;;43.67;29.00;;;;;7.49;100.00;103770.03;5055646;28;45225;-77
2021/12/17 10:17:59;;;;;;;;;40.00;34.00;;;;;7.53;100.00;103766.72;5056209;28;47594;-78
2021/12/17 10:20:25;;;;;;;;;44.33;37.00;;;;;7.50;100.00;103751.75;5055898;28;45297;-77
2021/12/17 10:23:07;;;;;;;;;38.00;32.00;;;;;7.63;100.00;103767.97;5055702;28;45436;-78
2021/12/17 10:25:34;;;;;;;;;39.00;31.33;;;;;7.60;100.00;103762.63;5054696;28;45463;-80
2021/12/17 10:28:04;;;;;;;;;50.33;33.00;;;;;7.67;100.00;103765.53;5053187;28;46354;-81
2021/12/17 10:30:34;;;;;;;;;73.00;56.33;;;;;7.71;100.00;103756.06;5057200;28;45328;-81
2021/12/17 10:33:02;;;;;;;;;47.00;37.00;;;;;7.76;100.00;103764.09;5059249;28;45517;-80
2021/12/17 10:35:31;;;;;;;;;55.00;41.33;;;;;7.82;100.00;103769.56;5060418;28;45392;-80
2021/12/17 10:38:00;;;;;;;;;47.33;34.67;;;;;7.64;100.00;103726.06;5059409;28;46082;-80
2021/12/17 10:40:36;;;;;;;;;42.33;34.67;;;;;7.88;100.00;103756.66;5059863;28;45574;-81
2021/12/17 10:43:11;;;;;;;;;45.00;34.33;;;;;7.82;100.00;103745.94;5059743;28;45436;-80
2021/12/17 10:45:42;;;;;;;;;50.67;36.00;;;;;7.92;100.00;103740.22;5059811;28;45483;-80
2021/12/17 10:50:52;;;;;;;;;49.33;39.33;;;;;7.94;100.00;103735.00;5058303;28;45440;-80
2021/12/17 10:53:23;;;;;;;;;39.00;31.67;;;;;7.97;99.82;103745.63;5052327;28;45432;-80
2021/12/17 10:55:49;;;;;;;;;52.33;36.67;;;;;7.90;100.00;103733.09;5060005;28;45432;-80
2021/12/17 10:58:14;;;;;;;;;47.67;34.33;;;;;7.93;100.00;103738.47;5058732;28;45301;-80
2021/12/17 11:00:56;;;;;;;;;38.00;32.67;;;;;8.02;100.00;103749.31;5059314;28;45422;-79
2021/12/17 11:03:22;;;;;;;;;49.00;34.33;;;;;7.98;100.00;103737.78;5058575;28;45477;-80
2021/12/17 11:05:48;;;;;;;;;44.00;35.67;;;;;8.01;100.00;103751.03;5060070;28;45467;-79
2021/12/17 11:08:30;;;;;;;;;42.67;37.00;;;;;8.04;100.00;103746.75;5059671;28;45773;-79
2021/12/17 11:11:06;;;;;;;;;38.33;32.33;;;;;7.99;99.82;103736.09;5059512;28;45373;-80
2021/12/17 11:13:31;;;;;;;;;40.67;28.33;;;;;7.92;99.49;103736.69;5059556;28;45303;-79
2021/12/17 11:15:58;;;;;;;;;37.00;31.33;;;;;7.93;100.00;103735.84;5059768;28;45416;-79
2021/12/17 11:18:25;;;;;;;;;41.33;35.00;;;;;7.94;100.00;103735.00;5059543;28;46450;-80
2021/12/17 11:20:52;;;;;;;;;47.33;36.33;;;;;7.94;100.00;103728.03;5059599;28;45332;-80
2021/12/17 11:23:18;;;;;;;;;38.00;32.33;;;;;7.92;99.81;103731.47;5059566;28;45266;-80
2021/12/17 11:25:48;;;;;;;;;38.33;30.00;;;;;7.88;100.00;103740.03;5059553;28;45599;-81
2021/12/17 11:28:14;;;;;;;;;32.00;29.33;;;;;7.80;100.00;103721.41;5059395;28;46533;-80
2021/12/17 11:30:45;;;;;;;;;38.00;32.33;;;;;7.78;100.00;103716.06;5059450;28;45369;-79
2021/12/17 11:33:12;;;;;;;;;43.67;33.33;;;;;7.80;100.00;103718.78;5059807;28;45441;-81
2021/12/17 11:35:42;;;;;;;;;47.00;32.33;;;;;7.81;100.00;103721.47;5059485;28;45400;-81
2021/12/17 11:38:15;;;;;;;;;47.33;37.00;;;;;7.77;100.00;103713.41;5058885;28;45258;-80
2021/12/17 11:40:50;;;;;;;;;47.00;34.33;;;;;7.80;100.00;103721.41;5059297;28;45395;-81
2021/12/17 11:43:23;;;;;;;;;31.67;28.67;;;;;7.86;100.00;103716.38;5058580;28;45582;-81
2021/12/17 11:46:03;;;;;;;;;42.00;34.00;;;;;7.86;100.00;103711.13;5059070;28;45332;-81
2021/12/17 11:48:31;;;;;;;;;42.00;34.33;;;;;7.90;100.00;103710.41;5059033;28;46284;-81
2021/12/17 11:51:15;;;;;;;;;47.33;33.00;;;;;7.93;100.00;103714.84;5058892;28;45321;-82
2021/12/17 11:54:03;;;;;;;;;35.00;30.67;;;;;7.83;100.00;103696.16;5059312;28;45218;-81
2021/12/17 11:56:34;;;;;;;;;46.67;37.00;;;;;7.98;100.00;103708.94;5059140;28;45460;-81
2021/12/17 11:59:00;;;;;;;;;40.00;30.33;;;;;7.97;100.00;103699.31;5058635;28;46575;-82
2021/12/17 12:01:46;;;;;;;;;43.33;34.00;;;;;8.08;100.00;103704.91;5058896;28;45752;-82
2021/12/17 12:04:35;;;;;;;;;47.67;33.67;;;;;8.08;100.00;103688.28;5059311;28;45526;-82
2021/12/17 12:07:25;;;;;;;;;43.33;32.33;;;;;8.17;99.83;103697.34;5036765;28;45458;-81
2021/12/17 12:10:13;;;;;;;;;44.33;30.33;;;;;8.19;99.81;103693.06;5036208;28;46696;-81
2021/12/17 12:12:45;;;;;;;;;44.00;32.00;;;;;8.23;100.00;103693.19;5036148;28;45495;-81
2021/12/17 12:15:28;;;;;;;;;31.33;26.00;;;;;8.28;99.79;103695.13;5036612;28;45350;-82
2021/12/17 12:18:07;;;;;;;;;38.33;26.33;;;;;8.37;99.76;103686.66;5038269;28;45472;-81
2021/12/17 12:20:44;;;;;;;;;35.67;29.67;;;;;8.43;99.31;103679.00;5056108;28;46254;-82
2021/12/17 12:23:28;;;;;;;;;38.00;29.67;;;;;8.46;98.83;103675.63;5056275;28;45447;-81
2021/12/17 12:26:05;;;;;;;;;39.33;31.67;;;;;8.47;99.77;103672.16;5056498;28;45488;-82
2021/12/17 12:28:45;;;;;;;;;40.33;32.67;;;;;8.54;99.59;103669.78;5056588;28;45349;-81
2021/12/17 12:31:12;;;;;;;;;37.33;27.33;;;;;8.59;99.94;103671.66;5056119;28;45659;-81
2021/12/17 12:34:12;;;;;;;;;39.00;30.67;;;;;8.65;98.86;103674.50;5056093;28;45770;-80
2021/12/17 12:36:58;;;;;;;;;40.33;27.00;;;;;8.70;99.16;103673.78;5056258;28;45388;-81
2021/12/17 12:39:38;;;;;;;;;32.00;27.67;;;;;8.73;98.94;103667.75;5056368;28;45361;-82
2021/12/17 12:42:06;;;;;;;;;34.67;25.33;;;;;8.71;98.92;103661.53;5056089;28;47242;-82
2021/12/17 12:44:44;;;;;;;;;37.33;27.00;;;;;8.78;98.75;103668.78;5057447;28;45381;-84
2021/12/17 12:47:35;;;;;;;;;32.00;27.00;;;;;8.81;98.73;103668.00;5057210;28;45493;-83
2021/12/17 12:50:03;;;;;;;;;39.33;28.00;;;;;8.82;99.14;103661.91;5058085;28;45598;-82
2021/12/17 12:52:29;;;;;;;;;43.00;29.67;;;;;8.84;99.19;103666.38;5058088;28;46254;-84
2021/12/17 12:55:27;;;;;;;;;32.00;27.67;;;;;8.89;98.95;103661.25;5056879;28;45274;-84
2021/12/17 12:57:58;;;;;;;;;40.67;30.67;;;;;8.91;98.68;103651.66;5058139;28;45630;-83
2021/12/17 13:00:25;;;;;;;;;37.67;29.67;;;;;8.93;98.45;103649.09;5058359;28;45309;-82
2021/12/17 13:03:12;;;;;;;;;33.33;28.67;;;;;8.88;99.12;103652.47;5054535;28;46502;-82
2021/12/17 13:05:38;;;;;;;;;34.67;29.33;;;;;8.83;99.19;103630.41;5049696;28;45363;-76
2021/12/17 13:08:07;;;;;;;;;39.00;25.00;;;;;8.85;99.40;103643.59;5057388;28;45321;-77
2021/12/17 13:10:39;;;;;;;;;34.67;29.00;;;;;8.94;99.08;103664.03;5057784;28;45480;-76
2021/12/17 13:13:07;;;;;;;;;43.67;33.00;;;;;8.93;99.29;103646.47;5057085;28;46737;-75
2021/12/17 13:23:27;;;;;;;;;41.33;34.00;;;;;8.95;99.36;103640.41;5054349;28;46086;-76
2021/12/17 13:26:09;;;;;;;;;52.33;34.33;;;;;8.98;99.59;103643.13;5053629;28;45420;-76
2021/12/17 13:28:50;;;;;;;;;41.33;31.67;;;;;8.84;100.00;103621.72;5053746;28;45467;-76
2021/12/17 13:31:56;;;;;;;;;39.67;33.00;;;;;8.93;100.00;103636.88;5054100;28;45602;-75
2021/12/17 13:34:30;;;;;;;;;53.67;36.67;;;;;8.94;100.00;103641.25;4990823;28;45511;-76
2021/12/17 13:37:01;;;;;;;;;43.67;36.00;;;;;9.00;100.00;103627.41;4990859;28;45695;-76
2021/12/17 13:39:33;;;;;;;;;50.00;35.00;;;;;8.96;100.00;103620.28;4991362;28;45658;-77
2021/12/17 13:41:59;;;;;;;;;48.33;33.33;;;;;9.03;99.94;103632.75;4991147;28;45568;-77
2021/12/17 13:44:24;;;;;;;;;45.33;36.00;;;;;9.02;100.00;103638.88;4990745;28;45556;-78
2021/12/17 13:46:51;;;;;;;;;42.67;33.33;;;;;9.03;100.00;103631.03;4990958;28;45603;-78
2021/12/17 13:49:17;;;;;;;;;57.33;44.00;;;;;8.98;100.00;103622.09;4991163;28;45474;-78
2021/12/17 13:51:42;;;;;;;;;59.67;45.33;;;;;8.99;100.00;103616.00;4991370;28;45550;-79
2021/12/17 13:54:08;;;;;;;;;45.67;35.00;;;;;9.01;99.88;103616.94;4990625;28;46009;-80
2021/12/17 13:56:33;;;;;;;;;55.67;37.67;;;;;8.99;99.63;103613.38;4990834;28;45593;-81
2021/12/17 13:59:00;;;;;;;;;42.67;35.33;;;;;9.09;99.76;103626.78;4991036;28;45578;-80
2021/12/17 14:01:26;;;;;;;;;52.33;36.67;;;;;9.00;100.00;103615.19;4991265;28;45473;-79
2021/12/17 14:03:51;;;;;;;;;52.67;34.67;;;;;9.00;99.84;103615.19;4990733;28;45896;-80
2021/12/17 14:06:23;;;;;;;;;49.67;39.00;;;;;8.99;99.45;103612.47;4993352;28;45472;-80
2021/12/17 14:08:49;;;;;;;;;44.00;36.00;;;;;9.03;99.53;103616.97;4997046;28;45596;-80
2021/12/17 14:11:32;;;;;;;;;53.00;38.33;;;;;9.10;99.86;103620.69;5036928;28;45824;-80
2021/12/17 14:14:00;;;;;;;;;44.67;31.00;;;;;9.06;99.89;103618.00;5036513;28;46636;-78
2021/12/17 14:16:27;;;;;;;;;37.33;29.67;;;;;8.94;99.91;103604.47;5036521;28;45487;-78
2021/12/17 14:19:02;;;;;;;;;43.00;36.67;;;;;8.95;99.90;103606.25;5036719;28;45552;-78
2021/12/17 14:21:33;;;;;;;;;40.00;31.00;;;;;8.99;100.00;103625.63;5044746;28;45496;-77
2021/12/17 14:23:59;;;;;;;;;34.67;30.33;;;;;9.00;100.00;103619.53;5056348;28;46581;-77
2021/12/17 14:26:32;;;;;;;;;40.00;33.00;;;;;8.99;100.00;103607.22;5048178;28;45439;-79
2021/12/17 14:29:09;;;;;;;;;32.00;28.00;;;;;8.93;99.48;103594.81;5041359;28;45427;-77
2021/12/17 14:31:35;;;;;;;;;39.33;28.00;;;;;8.98;99.66;103592.31;5036554;28;45493;-77
2021/12/17 14:34:01;;;;;;;;;40.67;32.33;;;;;9.01;99.35;103593.28;5036201;28;45507;-76